Time,TemperatureF,DewpointF,PressureIn,WindDirection,WindDirectionDegrees,WindSpeedMPH,WindSpeedGustMPH,Humidity,HourlyPrecipIn,Conditions,Clouds,dailyrainin,SoftwareType,DateUTC
2013-07-29 00:05:00,52.4,51.0,30.10,NNW,346,0.0,0.0,93,0.00,,,0.00,weatherlink.com 1.10,2013-07-29 07:05:00,
2013-07-29 00:20:00,52.6,51.0,30.10,NNW,346,0.0,0.0,93,0.00,,,0.00,weatherlink.com 1.10,2013-07-29 07:20:00,
2013-07-29 00:35:00,53.0,51.0,30.09,NNW,346,0.0,0.0,93,0.00,,,0.00,weatherlink.com 1.10,2013-07-29 07:35:00,
2013-07-29 00:50:00,53.5,52.0,30.10,NNW,346,0.0,0.0,94,0.00,,,0.00,weatherlink.com 1.10,2013-07-29 07:50:00,
2013-07-29 01:05:00,53.9,52.0,30.09,NNW,346,0.0,0.0,93,0.00,,,0.00,weatherlink.com 1.10,2013-07-29 08:05:00,
2013-07-29 01:20:00,55.1,53.0,30.09,East,88,2.0,3.0,93,0.00,,,0.00,weatherlink.com 1.10,2013-07-29 08:20:00,
2013-07-29 01:35:00,54.5,52.0,30.09,WNW,300,1.0,3.0,92,0.00,,,0.00,weatherlink.com 1.10,2013-07-29 08:35:00,
2013-07-29 01:50:00,54.3,52.0,30.09,West,267,1.0,3.0,93,0.00,,,0.00,weatherlink.com 1.10,2013-07-29 08:50:00,
2013-07-29 02:05:00,54.5,53.0,30.09,ESE,112,0.0,0.0,93,0.00,,,0.00,weatherlink.com 1.10,2013-07-29 09:05:00,
2013-07-29 02:20:00,54.5,53.0,30.09,ESE,112,0.0,0.0,93,0.00,,,0.00,weatherlink.com 1.10,2013-07-29 09:20:00,
2013-07-29 02:35:00,54.4,53.0,30.09,ESE,111,0.0,0.0,94,0.00,,,0.00,weatherlink.com 1.10,2013-07-29 09:35:00,
2013-07-29 02:50:00,54.7,53.0,30.08,ESE,105,0.0,0.0,94,0.00,,,0.00,weatherlink.com 1.10,2013-07-29 09:50:00,
2013-07-29 03:05:00,55.0,53.0,30.09,ESE,109,0.0,0.0,94,0.00,,,0.00,weatherlink.com 1.10,2013-07-29 10:05:00,
2013-07-29 03:20:00,55.3,53.0,30.09,ESE,109,0.0,0.0,93,0.00,,,0.00,weatherlink.com 1.10,2013-07-29 10:20:00,
2013-07-29 03:35:00,55.5,54.0,30.09,East,97,0.0,0.0,93,0.00,,,0.00,weatherlink.com 1.10,2013-07-29 10:35:00,
2013-07-29 03:50:00,55.7,54.0,30.08,ESE,107,0.0,0.0,93,0.00,,,0.00,weatherlink.com 1.10,2013-07-29 10:50:00,
2013-07-29 04:05:00,55.6,54.0,30.08,ESE,107,0.0,0.0,93,0.00,,,0.00,weatherlink.com 1.10,2013-07-29 11:05:00,
2013-07-29 04:50:00,55.7,54.0,30.08,ESE,108,0.0,0.0,94,0.00,,,0.00,weatherlink.com 1.10,2013-07-29 11:50:00,
2013-07-29 05:05:00,55.7,54.0,30.08,ESE,107,0.0,0.0,93,0.00,,,0.00,weatherlink.com 1.10,2013-07-29 12:05:00,
2013-07-29 05:20:00,54.8,53.0,30.09,West,263,0.0,3.0,93,0.00,,,0.00,weatherlink.com 1.10,2013-07-29 12:20:00,
2013-07-29 05:35:00,54.0,52.0,30.09,West,263,0.0,0.0,94,0.00,,,0.00,weatherlink.com 1.10,2013-07-29 12:35:00,
2013-07-29 05:50:00,53.9,53.0,30.09,West,263,0.0,0.0,95,0.00,,,0.00,weatherlink.com 1.10,2013-07-29 12:50:00,
2013-07-29 06:05:00,53.7,52.0,30.09,East,81,0.0,0.0,95,0.00,,,0.00,weatherlink.com 1.10,2013-07-29 13:05:00,
2013-07-29 06:20:00,53.7,52.0,30.09,East,89,0.0,0.0,95,0.00,,,0.00,weatherlink.com 1.10,2013-07-29 13:20:00,
2013-07-29 06:35:00,53.6,52.0,30.09,WSW,241,0.0,0.0,95,0.00,,,0.00,weatherlink.com 1.10,2013-07-29 13:35:00,
2013-07-29 06:50:00,53.9,53.0,30.09,WSW,254,0.0,0.0,95,0.00,,,0.00,weatherlink.com 1.10,2013-07-29 13:50:00,
2013-07-29 07:35:00,54.9,54.0,30.09,WSW,237,0.0,0.0,95,0.00,,,0.00,weatherlink.com 1.10,2013-07-29 14:35:00,
2013-07-29 08:21:00,55.4,54.0,30.09,West,275,0.0,0.0,95,0.00,,,0.00,weatherlink.com 1.10,2013-07-29 15:21:00,
2013-07-29 08:36:00,55.6,54.0,30.09,West,267,0.0,0.0,94,0.00,,,0.00,weatherlink.com 1.10,2013-07-29 15:36:00,
2013-07-29 08:51:00,55.5,54.0,30.10,WNW,296,0.0,0.0,95,0.00,,,0.00,weatherlink.com 1.10,2013-07-29 15:51:00,
2013-07-29 09:06:00,55.8,54.0,30.10,West,263,0.0,0.0,94,0.00,,,0.00,weatherlink.com 1.10,2013-07-29 16:06:00,
2013-07-29 09:21:00,56.0,54.0,30.10,SW,219,0.0,0.0,93,0.00,,,0.00,weatherlink.com 1.10,2013-07-29 16:21:00,
2013-07-29 09:36:00,56.5,55.0,30.10,SW,226,0.0,0.0,94,0.00,,,0.00,weatherlink.com 1.10,2013-07-29 16:36:00,
2013-07-29 09:51:00,58.0,56.0,30.10,SW,226,0.0,0.0,92,0.00,,,0.00,weatherlink.com 1.10,2013-07-29 16:51:00,
2013-07-29 10:06:00,58.8,56.0,30.09,SW,230,0.0,0.0,89,0.00,,,0.00,weatherlink.com 1.10,2013-07-29 17:06:00,
2013-07-29 10:21:00,59.6,56.0,30.09,NNE,19,1.0,3.0,87,0.00,,,0.00,weatherlink.com 1.10,2013-07-29 17:21:00,
2013-07-29 10:36:00,59.5,55.0,30.10,WSW,250,2.0,3.0,84,0.00,,,0.00,weatherlink.com 1.10,2013-07-29 17:36:00,
2013-07-29 10:51:00,58.2,54.0,30.09,West,261,2.0,6.0,87,0.00,,,0.00,weatherlink.com 1.10,2013-07-29 17:51:00,
2013-07-29 11:06:00,58.0,55.0,30.10,NW,305,2.0,4.0,89,0.00,,,0.00,weatherlink.com 1.10,2013-07-29 18:06:00,
2013-07-29 11:36:00,58.1,55.0,30.10,WNW,303,3.0,5.0,89,0.00,,,0.00,weatherlink.com 1.10,2013-07-29 18:36:00,
2013-07-29 11:51:00,58.2,55.0,30.10,West,276,1.0,4.0,90,0.00,,,0.00,weatherlink.com 1.10,2013-07-29 18:51:00,
2013-07-29 12:06:00,58.4,55.0,30.11,WNW,294,1.0,5.0,89,0.00,,,0.00,weatherlink.com 1.10,2013-07-29 19:06:00,
2013-07-29 12:51:00,59.7,56.0,30.11,West,277,0.0,5.0,87,0.00,,,0.00,weatherlink.com 1.10,2013-07-29 19:51:00,
2013-07-29 13:06:00,59.8,56.0,30.12,WNW,296,1.0,4.0,86,0.00,,,0.00,weatherlink.com 1.10,2013-07-29 20:06:00,
2013-07-29 14:06:00,61.2,56.0,30.11,NW,308,1.0,5.0,84,0.00,,,0.00,weatherlink.com 1.10,2013-07-29 21:06:00,
2013-07-29 14:36:00,59.9,57.0,30.11,West,281,4.0,6.0,89,0.00,,,0.00,weatherlink.com 1.10,2013-07-29 21:36:00,
2013-07-29 14:51:00,60.7,57.0,30.11,WNW,292,4.0,7.0,86,0.00,,,0.00,weatherlink.com 1.10,2013-07-29 21:51:00,
2013-07-29 16:06:00,60.9,57.0,30.11,NW,311,2.0,5.0,86,0.00,,,0.00,weatherlink.com 1.10,2013-07-29 23:06:00,
2013-07-29 16:51:00,59.9,55.0,30.11,WNW,294,5.0,6.0,85,0.00,,,0.00,weatherlink.com 1.10,2013-07-29 23:51:00,
2013-07-29 17:06:00,59.0,55.0,30.11,WNW,302,2.0,7.0,87,0.00,,,0.00,weatherlink.com 1.10,2013-07-30 00:06:00,
2013-07-29 17:36:00,58.4,55.0,30.12,West,269,4.0,6.0,88,0.00,,,0.00,weatherlink.com 1.10,2013-07-30 00:36:00,
2013-07-29 18:06:00,58.0,55.0,30.12,West,280,3.0,6.0,89,0.00,,,0.00,weatherlink.com 1.10,2013-07-30 01:06:00,
2013-07-29 18:21:00,57.7,55.0,30.12,WSW,256,2.0,5.0,90,0.00,,,0.00,weatherlink.com 1.10,2013-07-30 01:21:00,
2013-07-29 18:36:00,57.4,54.0,30.11,WNW,300,4.0,6.0,89,0.00,,,0.00,weatherlink.com 1.10,2013-07-30 01:36:00,
2013-07-29 18:51:00,57.3,55.0,30.11,WSW,257,2.0,5.0,90,0.00,,,0.00,weatherlink.com 1.10,2013-07-30 01:51:00,
2013-07-29 19:36:00,56.4,53.0,30.12,NW,310,2.0,6.0,89,0.00,,,0.00,weatherlink.com 1.10,2013-07-30 02:36:00,
2013-07-29 19:51:00,56.5,53.0,30.12,NE,38,1.0,3.0,89,0.00,,,0.00,weatherlink.com 1.10,2013-07-30 02:51:00,
2013-07-29 20:06:00,56.3,53.0,30.12,NNE,32,0.0,1.0,89,0.00,,,0.00,weatherlink.com 1.10,2013-07-30 03:06:00,
2013-07-29 20:36:00,55.8,53.0,30.12,NW,311,0.0,2.0,90,0.00,,,0.00,weatherlink.com 1.10,2013-07-30 03:36:00,
2013-07-29 20:51:00,55.7,53.0,30.12,NW,311,0.0,0.0,90,0.00,,,0.00,weatherlink.com 1.10,2013-07-30 03:51:00,
2013-07-29 21:21:00,55.7,53.0,30.13,SE,135,0.0,0.0,91,0.00,,,0.00,weatherlink.com 1.10,2013-07-30 04:21:00,
2013-07-29 21:36:00,55.5,53.0,30.13,ESE,111,0.0,3.0,91,0.00,,,0.00,weatherlink.com 1.10,2013-07-30 04:36:00,
2013-07-29 21:51:00,55.6,53.0,30.14,ESE,119,0.0,1.0,91,0.00,,,0.00,weatherlink.com 1.10,2013-07-30 04:51:00,
2013-07-29 22:06:00,55.5,53.0,30.14,ESE,121,0.0,0.0,91,0.00,,,0.00,weatherlink.com 1.10,2013-07-30 05:06:00,
2013-07-29 22:22:00,55.1,53.0,30.15,West,273,0.0,0.0,91,0.00,,,0.00,weatherlink.com 1.10,2013-07-30 05:22:00,
2013-07-29 22:36:00,54.7,53.0,30.15,WSW,257,0.0,0.0,92,0.00,,,0.00,weatherlink.com 1.10,2013-07-30 05:36:00,
2013-07-29 22:52:00,54.8,53.0,30.15,WSW,257,0.0,0.0,92,0.00,,,0.00,weatherlink.com 1.10,2013-07-30 05:52:00,
2013-07-29 23:06:00,54.7,53.0,30.15,West,280,0.0,0.0,92,0.00,,,0.00,weatherlink.com 1.10,2013-07-30 06:06:00,
2013-07-29 23:21:00,54.6,52.0,30.16,WNW,286,0.0,0.0,92,0.00,,,0.00,weatherlink.com 1.10,2013-07-30 06:21:00,
2013-07-29 23:37:00,54.8,53.0,30.16,ENE,73,0.0,0.0,92,0.00,,,0.00,weatherlink.com 1.10,2013-07-30 06:37:00,
2013-07-29 23:52:00,54.9,53.0,30.16,SE,125,0.0,0.0,92,0.00,,,0.00,weatherlink.com 1.10,2013-07-30 06:52:00,